Time;durP1;ratioP1;P1;durP2;ratioP2;P2;SDS_P1;SDS_P2;PMS_P1;PMS_P2;Temp;Humidity;BMP_temperature;BMP_pressure;BME280_temperature;BME280_humidity;BME280_pressure;Samples;Min_cycle;Max_cycle;Signal;HPM_P1;HPM_P2
2023/06/01 05:50:48;;;;;;;13.75;7.43;;;;;;;;;;10640651;27;20466;-82
2023/06/01 05:55:49;;;;;;;21.92;9.32;;;;;;;;;;10630056;28;20019;-83
2023/06/01 06:00:50;;;;;;;;;;;;;;;;;;10685175;22;20062;-82
2023/06/01 06:05:51;;;;;;;;;;;;;;;;;;10694328;27;19914;-82
2023/06/01 06:10:52;;;;;;;8.68;6.50;;;;;;;;;;10696593;27;19957;-83
2023/06/01 06:16:02;;;;;;;11.02;7.10;;;;;;;;;;10696621;27;20027;-83
2023/06/01 06:21:05;;;;;;;8.43;6.43;;;;;;;;;;10686380;27;20026;-83
2023/06/01 06:26:06;;;;;;;4.75;3.80;;;;;;;;;;10674735;27;20019;-83
2023/06/01 06:31:07;;;;;;;6.40;5.13;;;;;;;;;;10673868;27;20019;-83
2023/06/01 06:36:08;;;;;;;12.82;8.13;;;;;;;;;;10678804;27;20029;-84
2023/06/01 06:41:09;;;;;;;10.98;6.35;;;;;;;;;;10681718;27;20055;-84
2023/06/01 06:46:11;;;;;;;7.22;5.35;;;;;;;;;;10691311;27;20023;-83
2023/06/01 06:51:12;;;;;;;8.52;5.25;;;;;;;;;;10705854;27;20031;-84
2023/06/01 06:56:13;;;;;;;7.07;5.80;;;;;;;;;;10703243;27;20035;-84
2023/06/01 07:01:14;;;;;;;13.02;8.25;;;;;;;;;;10649339;27;20031;-83
2023/06/01 07:06:15;;;;;;;6.45;4.03;;;;;;;;;;10643339;27;20041;-85
2023/06/01 07:11:17;;;;;;;4.40;3.20;;;;;;;;;;10647681;27;20140;-82
2023/06/01 07:16:18;;;;;;;6.32;4.18;;;;;;;;;;10646290;27;20447;-83
2023/06/01 07:21:19;;;;;;;5.95;4.03;;;;;;;;;;10647087;27;20035;-83
2023/06/01 07:26:22;;;;;;;10.77;7.15;;;;;;;;;;10658936;27;20037;-83
2023/06/01 07:31:24;;;;;;;11.65;5.20;;;;;;;;;;10673586;27;20076;-83
2023/06/01 07:36:26;;;;;;;9.10;6.72;;;;;;;;;;10650290;27;20080;-83
2023/06/01 07:41:27;;;;;;;16.40;12.75;;;;;;;;;;10641050;27;20152;-83
2023/06/01 07:46:28;;;;;;;9.57;7.60;;;;;;;;;;10641441;27;20031;-84
2023/06/01 07:51:31;;;;;;;11.80;9.35;;;;;;;;;;10638927;27;20027;-83
2023/06/01 07:56:32;;;;;;;18.55;12.32;;;;;;;;;;10636814;27;20023;-84
2023/06/01 08:01:33;;;;;;;18.65;16.20;;;;;;;;;;10635046;27;20102;-84
2023/06/01 08:06:35;;;;;;;14.80;12.82;;;;;;;;;;10636220;27;20035;-84
2023/06/01 08:11:36;;;;;;;22.05;18.05;;;;;;;;;;10634130;27;20024;-83
2023/06/01 08:16:38;;;;;;;18.77;15.80;;;;;;;;;;10636407;27;20026;-84
2023/06/01 08:21:41;;;;;;;18.77;16.52;;;;;;;;;;10636075;27;20045;-84
2023/06/01 08:26:42;;;;;;;20.05;16.60;;;;;;;;;;10635310;27;20471;-84
2023/06/01 08:31:43;;;;;;;20.90;17.55;;;;;;;;;;10633131;27;20375;-84
2023/06/01 08:36:44;;;;;;;18.45;15.52;;;;;;;;;;10632441;27;20169;-84
2023/06/01 08:41:50;;;;;;;18.13;15.98;;;;;;;;;;10633176;27;20030;-84
2023/06/01 08:46:51;;;;;;;18.33;15.95;;;;;;;;;;10635144;27;20130;-84
2023/06/01 08:51:55;;;;;;;18.08;13.75;;;;;;;;;;10637488;27;20023;-84
2023/06/01 08:56:56;;;;;;;17.23;14.43;;;;;;;;;;10636528;27;20019;-82
2023/06/01 09:01:58;;;;;;;16.88;13.75;;;;;;;;;;10635962;27;20555;-85
2023/06/01 09:06:59;;;;;;;22.35;14.05;;;;;;;;;;10637377;27;20023;-83
2023/06/01 09:12:20;;;;;;;15.38;12.10;;;;;;;;;;10637973;27;20389;-83
2023/06/01 09:17:22;;;;;;;13.75;10.50;;;;;;;;;;10636724;27;20015;-83
2023/06/01 09:22:23;;;;;;;14.82;10.43;;;;;;;;;;10634704;27;20023;-84
2023/06/01 09:27:25;;;;;;;15.20;11.07;;;;;;;;;;10635597;27;20534;-84
2023/06/01 09:32:26;;;;;;;14.07;10.05;;;;;;;;;;10638177;27;20034;-83
2023/06/01 09:37:27;;;;;;;13.05;10.30;;;;;;;;;;10637080;27;20066;-83
2023/06/01 09:42:32;;;;;;;17.65;12.82;;;;;;;;;;10642381;27;20023;-82
2023/06/01 09:47:33;;;;;;;16.33;13.45;;;;;;;;;;10638704;28;20030;-82
2023/06/01 09:52:34;;;;;;;15.40;12.02;;;;;;;;;;10635219;28;20446;-82
2023/06/01 09:57:35;;;;;;;10.55;9.20;;;;;;;;;;10634142;27;20019;-82
2023/06/01 10:02:41;;;;;;;11.52;8.40;;;;;;;;;;10633772;28;20030;-82
2023/06/01 10:07:42;;;;;;;32.50;23.35;;;;;;;;;;10637444;28;20118;-82
2023/06/01 10:12:45;;;;;;;12.57;9.23;;;;;;;;;;10637987;28;20099;-83
2023/06/01 10:17:46;;;;;;;11.38;8.80;;;;;;;;;;10635650;27;20464;-82
2023/06/01 10:22:47;;;;;;;10.27;7.57;;;;;;;;;;10629335;28;20090;-83
2023/06/01 10:27:56;;;;;;;12.02;8.73;;;;;;;;;;10631505;28;20023;-83
2023/06/01 10:32:57;;;;;;;12.40;9.60;;;;;;;;;;10631796;27;20176;-83
2023/06/01 10:38:09;;;;;;;9.55;7.45;;;;;;;;;;10639899;27;20094;-83
2023/06/01 10:43:29;;;;;;;10.23;7.47;;;;;;;;;;10640142;27;20068;-83
2023/06/01 10:48:56;;;;;;;12.30;8.23;;;;;;;;;;10649781;27;20472;-83
2023/06/01 10:54:24;;;;;;;11.13;8.45;;;;;;;;;;10659269;27;20035;-83
2023/06/01 10:59:26;;;;;;;10.35;6.93;;;;;;;;;;10661990;27;20046;-84
2023/06/01 11:04:41;;;;;;;14.23;8.40;;;;;;;;;;10660423;27;20038;-83
2023/06/01 11:09:45;;;;;;;9.65;7.03;;;;;;;;;;10664025;27;20024;-83
2023/06/01 11:15:06;;;;;;;11.77;7.40;;;;;;;;;;10655976;27;20080;-83
2023/06/01 11:20:11;;;;;;;12.40;8.82;;;;;;;;;;10649521;27;20102;-83
2023/06/01 11:25:16;;;;;;;16.40;10.93;;;;;;;;;;10644232;27;20080;-83
2023/06/01 11:30:25;;;;;;;9.95;6.70;;;;;;;;;;10650933;27;20027;-84
2023/06/01 11:35:28;;;;;;;12.60;7.70;;;;;;;;;;10651247;27;20075;-83
2023/06/01 11:40:29;;;;;;;13.20;9.57;;;;;;;;;;10656776;27;20044;-83
2023/06/01 11:45:30;;;;;;;11.55;8.93;;;;;;;;;;10652643;27;20068;-83
2023/06/01 11:50:31;;;;;;;9.63;6.40;;;;;;;;;;10651627;27;20030;-83
2023/06/01 11:55:32;;;;;;;8.73;6.40;;;;;;;;;;10651981;27;20026;-83
2023/06/01 12:00:41;;;;;;;8.73;5.28;;;;;;;;;;10664999;22;20138;-83
2023/06/01 12:05:46;;;;;;;9.18;5.72;;;;;;;;;;10600061;28;20030;-84
2023/06/01 12:10:50;;;;;;;8.95;5.68;;;;;;;;;;10599405;28;20019;-85
2023/06/01 12:15:53;;;;;;;11.85;6.72;;;;;;;;;;10603873;28;20035;-83
2023/06/01 12:20:54;;;;;;;8.57;6.18;;;;;;;;;;10601395;28;20054;-84
2023/06/01 12:25:57;;;;;;;9.60;6.03;;;;;;;;;;10603105;28;20020;-83
2023/06/01 12:31:12;;;;;;;11.52;7.82;;;;;;;;;;10587543;28;20392;-83
2023/06/01 12:36:34;;;;;;;10.65;6.32;;;;;;;;;;10598424;28;20028;-84
2023/06/01 12:41:35;;;;;;;8.57;7.05;;;;;;;;;;10594281;28;20020;-83
2023/06/01 12:46:36;;;;;;;12.63;6.88;;;;;;;;;;10595664;28;20031;-82
2023/06/01 12:51:38;;;;;;;8.18;6.00;;;;;;;;;;10600289;28;20058;-83
2023/06/01 12:56:39;;;;;;;8.40;5.88;;;;;;;;;;10594666;28;20043;-85
2023/06/01 13:01:40;;;;;;;7.05;5.70;;;;;;;;;;10594562;28;20540;-84
2023/06/01 13:06:41;;;;;;;9.88;6.28;;;;;;;;;;10596060;28;20027;-81
2023/06/01 13:11:45;;;;;;;10.70;7.25;;;;;;;;;;10598602;28;20054;-82
2023/06/01 13:16:48;;;;;;;14.43;12.70;;;;;;;;;;10601039;28;20028;-83
2023/06/01 13:21:49;;;;;;;9.80;6.93;;;;;;;;;;10599802;28;20032;-84
2023/06/01 13:26:50;;;;;;;8.32;6.10;;;;;;;;;;10597478;28;20015;-82
2023/06/01 13:31:51;;;;;;;9.15;6.80;;;;;;;;;;10600239;28;20034;-82
2023/06/01 13:36:52;;;;;;;13.00;6.63;;;;;;;;;;10598384;28;20024;-82
2023/06/01 13:41:53;;;;;;;9.05;6.47;;;;;;;;;;10595835;28;20023;-83
2023/06/01 13:46:55;;;;;;;9.57;7.30;;;;;;;;;;10594677;28;20028;-81
2023/06/01 13:51:56;;;;;;;14.80;10.95;;;;;;;;;;10594653;28;20114;-84
2023/06/01 13:56:57;;;;;;;15.55;7.50;;;;;;;;;;10592150;28;20019;-81
2023/06/01 14:01:58;;;;;;;12.85;7.85;;;;;;;;;;10596059;28;20035;-81
2023/06/01 14:06:59;;;;;;;6.53;5.22;;;;;;;;;;10592925;28;20473;-82
2023/06/01 14:12:00;;;;;;;6.90;6.18;;;;;;;;;;10597573;28;20031;-81
2023/06/01 14:17:01;;;;;;;9.32;6.30;;;;;;;;;;10601419;28;20076;-82
2023/06/01 14:22:02;;;;;;;12.65;7.93;;;;;;;;;;10602378;28;20090;-81
2023/06/01 14:27:04;;;;;;;8.63;7.00;;;;;;;;;;10599936;28;20552;-81
2023/06/01 14:32:05;;;;;;;9.65;7.28;;;;;;;;;;10600501;28;20030;-81
2023/06/01 14:37:10;;;;;;;9.07;6.32;;;;;;;;;;10598304;28;20076;-82
2023/06/01 14:42:11;;;;;;;6.20;5.03;;;;;;;;;;10600935;28;20061;-83
2023/06/01 14:47:13;;;;;;;11.02;7.93;;;;;;;;;;10600808;28;20047;-82
2023/06/01 14:52:15;;;;;;;7.57;5.80;;;;;;;;;;10600428;28;20035;-83
2023/06/01 14:57:16;;;;;;;8.35;4.70;;;;;;;;;;10601075;28;20115;-83
2023/06/01 15:02:17;;;;;;;7.35;5.15;;;;;;;;;;10598689;28;20028;-80
2023/06/01 15:07:18;;;;;;;6.22;4.95;;;;;;;;;;10598713;28;20034;-80
2023/06/01 15:12:19;;;;;;;7.20;4.50;;;;;;;;;;10596470;28;20027;-80
2023/06/01 15:17:23;;;;;;;7.03;3.97;;;;;;;;;;10602117;28;20469;-80
2023/06/01 15:22:28;;;;;;;9.07;5.13;;;;;;;;;;10598194;28;20019;-81
2023/06/01 15:27:30;;;;;;;6.00;4.53;;;;;;;;;;10602720;28;20138;-79
2023/06/01 15:32:32;;;;;;;7.65;4.75;;;;;;;;;;10609849;28;20083;-79
2023/06/01 15:37:35;;;;;;;7.88;6.45;;;;;;;;;;10632743;28;20055;-81
2023/06/01 15:42:36;;;;;;;9.20;5.47;;;;;;;;;;10625932;28;20055;-83
2023/06/01 15:47:37;;;;;;;8.02;5.35;;;;;;;;;;10599729;28;20023;-82
2023/06/01 15:52:38;;;;;;;6.30;4.88;;;;;;;;;;10599967;28;20030;-81
2023/06/01 15:57:41;;;;;;;11.20;8.65;;;;;;;;;;10602386;28;20032;-82
2023/06/01 16:02:42;;;;;;;7.25;5.25;;;;;;;;;;10608393;28;20028;-82
2023/06/01 16:07:43;;;;;;;9.43;5.68;;;;;;;;;;10613923;28;20028;-82
2023/06/01 16:12:45;;;;;;;13.18;6.75;;;;;;;;;;10600980;28;20020;-82
2023/06/01 16:17:46;;;;;;;7.85;5.60;;;;;;;;;;10599547;28;20027;-81
2023/06/01 16:22:47;;;;;;;8.55;4.60;;;;;;;;;;10597105;28;20020;-82
2023/06/01 16:27:49;;;;;;;8.35;4.70;;;;;;;;;;10594942;28;20095;-80
2023/06/01 16:32:59;;;;;;;7.07;4.47;;;;;;;;;;10595073;28;20102;-82
2023/06/01 16:38:00;;;;;;;8.25;5.85;;;;;;;;;;10595949;28;20442;-83
2023/06/01 16:43:06;;;;;;;7.30;4.03;;;;;;;;;;10595182;28;20060;-82
2023/06/01 16:48:14;;;;;;;5.25;3.67;;;;;;;;;;10600275;28;20028;-83
2023/06/01 16:53:17;;;;;;;4.35;3.67;;;;;;;;;;10601447;28;20051;-83
2023/06/01 16:58:18;;;;;;;9.55;3.78;;;;;;;;;;10601717;28;20087;-83
2023/06/01 17:03:19;;;;;;;5.40;3.50;;;;;;;;;;10607054;28;20118;-83
2023/06/01 17:08:20;;;;;;;5.03;3.58;;;;;;;;;;10602029;28;20027;-83
2023/06/01 17:13:21;;;;;;;6.13;4.03;;;;;;;;;;10606333;28;20054;-83
2023/06/01 17:18:22;;;;;;;5.93;3.65;;;;;;;;;;10598750;28;20095;-83
2023/06/01 17:23:23;;;;;;;7.95;3.88;;;;;;;;;;10598317;28;20035;-83
2023/06/01 17:28:24;;;;;;;5.78;4.57;;;;;;;;;;10598195;28;20035;-83
2023/06/01 17:33:26;;;;;;;6.97;4.60;;;;;;;;;;10597892;28;20020;-82
2023/06/01 17:38:27;;;;;;;5.93;4.53;;;;;;;;;;10577952;28;20049;-84
2023/06/01 17:43:29;;;;;;;5.55;4.95;;;;;;;;;;10590026;28;20091;-83
2023/06/01 17:48:34;;;;;;;5.60;3.90;;;;;;;;;;10601141;27;20035;-83
2023/06/01 17:53:35;;;;;;;5.95;3.53;;;;;;;;;;10609777;28;20038;-83
2023/06/01 17:58:36;;;;;;;8.38;4.88;;;;;;;;;;10610807;28;20032;-83
2023/06/01 18:03:37;;;;;;;4.88;3.65;;;;;;;;;;10644174;22;20039;-83
2023/06/01 18:08:38;;;;;;;7.05;3.80;;;;;;;;;;10620257;28;20501;-83
2023/06/01 18:13:40;;;;;;;6.78;3.97;;;;;;;;;;10616452;28;20049;-83
2023/06/01 18:18:41;;;;;;;6.45;4.28;;;;;;;;;;10619353;28;20024;-84
2023/06/01 18:23:46;;;;;;;5.80;3.42;;;;;;;;;;10625162;28;20019;-84
2023/06/01 18:28:47;;;;;;;6.57;3.50;;;;;;;;;;10626713;28;20031;-83
2023/06/01 18:33:48;;;;;;;6.43;3.28;;;;;;;;;;10614868;28;20455;-85
2023/06/01 18:38:50;;;;;;;5.82;3.30;;;;;;;;;;10616499;28;20036;-85
2023/06/01 18:43:51;;;;;;;5.60;3.40;;;;;;;;;;10621660;28;20000;-82
2023/06/01 18:48:52;;;;;;;5.95;3.40;;;;;;;;;;10616997;28;20028;-86
2023/06/01 18:53:53;;;;;;;7.38;3.30;;;;;;;;;;10617067;28;20091;-86
2023/06/01 18:58:54;;;;;;;6.90;3.33;;;;;;;;;;10622166;28;20027;-83
2023/06/01 19:03:55;;;;;;;3.80;2.45;;;;;;;;;;10624371;28;20024;-84
2023/06/01 19:08:58;;;;;;;6.68;3.83;;;;;;;;;;10624571;28;20011;-83
2023/06/01 19:13:59;;;;;;;5.97;2.92;;;;;;;;;;10627050;28;20038;-83
